X  Sluiten METAR luchtvaart weer gegevens      EBBR Brussels Airport
Temperatuur
16°C Temperatuur
11°C Dauwpunt
72% Vochtigheid



Wind
14 KM/U
9 MPH
4 M/S
8 KTS



260°
W
Huidig weer

Overwegend bewolkt Overwegend bewolkt
Luchtdruk 1014.9 (hPa) - 29.97 (inHg)
Zicht 6 (mijl) - 9.7 (km)
Vliegveld
Vliegveld code EBBR

Locatie : Brussels Airport
Afstand: 14 (km)

Metar:
EBBR 230920Z 26008KT 9999 BKN026 16/11 Q1015 NOSIG

Tijd: 23-05-2024 11:20 CEST